Time;durP1;ratioP1;P1;durP2;ratioP2;P2;SDS_P1;SDS_P2;PMS_P1;PMS_P2;Temp;Humidity;BMP_temperature;BMP_pressure;BME280_temperature;BME280_humidity;BME280_pressure;Samples;Min_cycle;Max_cycle;Signal;HPM_P1;HPM_P2
2023/07/24 00:01:31;;;;;;;7.85;3.97;;;;;;;;;;5017455;28;20772;-65
2023/07/24 00:03:59;;;;;;;5.55;3.92;;;;;;;;;;5010610;28;20412;-65
2023/07/24 00:06:26;;;;;;;5.18;4.20;;;;;;;;;;5010194;28;20424;-65
2023/07/24 00:08:52;;;;;;;6.10;4.30;;;;;;;;;;5010690;28;20465;-65
2023/07/24 00:11:19;;;;;;;8.05;4.38;;;;;;;;;;5010220;28;20885;-65
2023/07/24 00:13:47;;;;;;;7.18;4.68;;;;;;;;;;5010651;28;20416;-65
2023/07/24 00:16:14;;;;;;;6.75;4.85;;;;;;;;;;5010108;28;20416;-65
2023/07/24 00:18:42;;;;;;;7.40;4.68;;;;;;;;;;5021749;28;20429;-65
2023/07/24 00:21:10;;;;;;;8.63;4.97;;;;;;;;;;5017388;28;20418;-64
2023/07/24 00:23:37;;;;;;;9.13;4.80;;;;;;;;;;5020458;28;20475;-64
2023/07/24 00:26:04;;;;;;;7.47;4.90;;;;;;;;;;5022030;28;21125;-65
2023/07/24 00:28:31;;;;;;;6.70;4.70;;;;;;;;;;5028594;28;20463;-65
2023/07/24 00:30:58;;;;;;;8.13;4.88;;;;;;;;;;5023773;28;20539;-65
2023/07/24 00:33:25;;;;;;;7.75;5.25;;;;;;;;;;5018971;28;20492;-65
2023/07/24 00:35:56;;;;;;;7.60;4.88;;;;;;;;;;5019453;28;20455;-65
2023/07/24 00:38:23;;;;;;;7.30;4.72;;;;;;;;;;5021579;28;20461;-65
2023/07/24 00:40:50;;;;;;;6.55;4.88;;;;;;;;;;5020111;28;20455;-65
2023/07/24 00:43:17;;;;;;;6.68;4.70;;;;;;;;;;5022448;28;20421;-64
2023/07/24 00:45:46;;;;;;;5.72;4.55;;;;;;;;;;5018752;28;20425;-65
2023/07/24 00:48:13;;;;;;;9.50;4.97;;;;;;;;;;5018845;28;20436;-65
2023/07/24 00:50:40;;;;;;;7.07;4.70;;;;;;;;;;5013899;28;20463;-65
2023/07/24 00:53:08;;;;;;;6.63;4.40;;;;;;;;;;5017727;28;20443;-64
2023/07/24 00:55:36;;;;;;;10.87;4.93;;;;;;;;;;5021511;28;20574;-64
2023/07/24 00:58:04;;;;;;;8.05;4.85;;;;;;;;;;5030724;28;20429;-65
2023/07/24 01:00:31;;;;;;;9.80;5.03;;;;;;;;;;5024885;28;20420;-65
2023/07/24 01:02:58;;;;;;;6.97;4.88;;;;;;;;;;5023132;28;20430;-65
2023/07/24 01:05:26;;;;;;;7.18;4.90;;;;;;;;;;5025845;28;20930;-65
2023/07/24 01:07:53;;;;;;;8.95;4.90;;;;;;;;;;5021038;28;20453;-65
2023/07/24 01:10:21;;;;;;;7.13;4.90;;;;;;;;;;5020395;28;20525;-65
2023/07/24 01:12:53;;;;;;;9.82;5.20;;;;;;;;;;5022304;28;20412;-65
2023/07/24 01:15:24;;;;;;;7.82;5.15;;;;;;;;;;5022734;28;20421;-65
2023/07/24 01:17:52;;;;;;;7.55;4.60;;;;;;;;;;5024469;28;20469;-65
2023/07/24 01:20:19;;;;;;;6.47;4.25;;;;;;;;;;5020819;28;20420;-65
2023/07/24 01:22:50;;;;;;;7.03;4.32;;;;;;;;;;5024363;28;20445;-65
2023/07/24 01:25:20;;;;;;;6.80;4.40;;;;;;;;;;5023916;28;20419;-65
2023/07/24 01:27:48;;;;;;;5.53;4.18;;;;;;;;;;5034228;28;20415;-65
2023/07/24 01:30:18;;;;;;;7.40;4.22;;;;;;;;;;5028623;28;20982;-65
2023/07/24 01:32:45;;;;;;;5.05;3.80;;;;;;;;;;5024355;28;20947;-65
2023/07/24 01:35:12;;;;;;;6.07;4.07;;;;;;;;;;5024263;28;20819;-64
2023/07/24 01:37:40;;;;;;;5.78;4.30;;;;;;;;;;5024000;28;20827;-65
2023/07/24 01:40:07;;;;;;;6.03;4.47;;;;;;;;;;5020373;28;20424;-64
2023/07/24 01:42:35;;;;;;;6.82;4.50;;;;;;;;;;5020183;28;20890;-65
2023/07/24 01:45:04;;;;;;;6.28;4.40;;;;;;;;;;5021951;28;20428;-65
2023/07/24 01:47:31;;;;;;;8.45;4.40;;;;;;;;;;5021588;28;20487;-65
2023/07/24 01:49:58;;;;;;;6.45;4.65;;;;;;;;;;5021627;28;20549;-65
2023/07/24 01:52:25;;;;;;;6.47;4.32;;;;;;;;;;5022654;28;20415;-64
2023/07/24 01:54:52;;;;;;;8.75;4.40;;;;;;;;;;5023563;28;20418;-65
2023/07/24 01:57:19;;;;;;;6.78;4.63;;;;;;;;;;5031742;28;20882;-65
2023/07/24 01:59:46;;;;;;;5.88;4.60;;;;;;;;;;5026064;28;20465;-65
2023/07/24 02:02:14;;;;;;;7.35;5.07;;;;;;;;;;5020187;28;20415;-65
2023/07/24 02:04:41;;;;;;;6.45;4.45;;;;;;;;;;5023490;28;20482;-65
2023/07/24 02:07:08;;;;;;;7.97;5.07;;;;;;;;;;5024017;28;20415;-65
2023/07/24 02:09:35;;;;;;;5.65;4.18;;;;;;;;;;5023446;28;20819;-65
2023/07/24 02:12:02;;;;;;;8.43;4.50;;;;;;;;;;5023608;28;20420;-65
2023/07/24 02:14:29;;;;;;;7.70;4.93;;;;;;;;;;5020983;28;20920;-65
2023/07/24 02:16:56;;;;;;;8.88;4.90;;;;;;;;;;5021806;28;20448;-65
2023/07/24 02:19:25;;;;;;;7.32;4.90;;;;;;;;;;5019512;28;20427;-64
2023/07/24 02:21:52;;;;;;;7.43;4.88;;;;;;;;;;5019585;28;20809;-65
2023/07/24 02:24:19;;;;;;;8.68;4.90;;;;;;;;;;5020031;28;20419;-65
2023/07/24 02:26:46;;;;;;;8.88;4.97;;;;;;;;;;5025696;28;20463;-65
2023/07/24 02:29:13;;;;;;;7.25;4.93;;;;;;;;;;5030512;28;20411;-65
2023/07/24 02:31:40;;;;;;;7.72;5.20;;;;;;;;;;5017155;28;20793;-64
2023/07/24 02:34:07;;;;;;;8.88;5.47;;;;;;;;;;5018378;28;20430;-65
2023/07/24 02:36:35;;;;;;;8.55;5.15;;;;;;;;;;5026898;28;20427;-65
2023/07/24 02:39:02;;;;;;;9.82;5.40;;;;;;;;;;5024337;28;20428;-65
2023/07/24 02:41:29;;;;;;;7.28;5.03;;;;;;;;;;5020720;28;20417;-66
2023/07/24 02:43:56;;;;;;;9.55;5.30;;;;;;;;;;5019357;28;20418;-65
2023/07/24 02:46:24;;;;;;;8.80;5.43;;;;;;;;;;5022126;28;20419;-65
2023/07/24 02:48:51;;;;;;;8.07;5.55;;;;;;;;;;5023897;28;20831;-65
2023/07/24 02:51:18;;;;;;;7.80;5.47;;;;;;;;;;5021334;28;20446;-65
2023/07/24 02:53:46;;;;;;;9.40;5.50;;;;;;;;;;5023180;28;20477;-65
2023/07/24 02:56:13;;;;;;;7.07;5.30;;;;;;;;;;5019615;28;20477;-65
2023/07/24 02:58:40;;;;;;;6.93;5.18;;;;;;;;;;5035077;28;20434;-65
2023/07/24 03:01:08;;;;;;;8.98;5.43;;;;;;;;;;5024107;28;20759;-65
2023/07/24 03:03:35;;;;;;;8.45;5.43;;;;;;;;;;5023690;28;20807;-65
2023/07/24 03:06:02;;;;;;;7.22;5.15;;;;;;;;;;5023378;28;20415;-65
2023/07/24 03:08:29;;;;;;;8.27;5.35;;;;;;;;;;5019165;28;20433;-65
2023/07/24 03:10:57;;;;;;;8.30;5.10;;;;;;;;;;5018344;28;20902;-65
2023/07/24 03:13:24;;;;;;;8.00;5.10;;;;;;;;;;5016761;28;20463;-65
2023/07/24 03:15:55;;;;;;;8.15;5.57;;;;;;;;;;5020325;28;20470;-64
2023/07/24 03:18:22;;;;;;;9.23;5.50;;;;;;;;;;5022272;28;20827;-65
2023/07/24 03:20:49;;;;;;;10.20;5.88;;;;;;;;;;5022131;28;20480;-65
2023/07/24 03:23:16;;;;;;;8.50;5.78;;;;;;;;;;5022302;28;20415;-65
2023/07/24 03:25:43;;;;;;;11.40;5.90;;;;;;;;;;5020163;28;20808;-65
2023/07/24 03:28:11;;;;;;;10.35;6.22;;;;;;;;;;5035873;28;20410;-65
2023/07/24 03:30:38;;;;;;;11.00;6.03;;;;;;;;;;5024444;28;20417;-65
2023/07/24 03:33:06;;;;;;;8.43;6.00;;;;;;;;;;5020627;28;20864;-65
2023/07/24 03:35:33;;;;;;;11.63;6.05;;;;;;;;;;5022753;28;20822;-65
2023/07/24 03:38:00;;;;;;;10.20;5.53;;;;;;;;;;5023335;28;20891;-65
2023/07/24 03:40:27;;;;;;;9.32;6.15;;;;;;;;;;5019113;28;20492;-65
2023/07/24 03:42:54;;;;;;;8.90;6.00;;;;;;;;;;5021448;28;20465;-65
2023/07/24 03:45:22;;;;;;;11.35;6.47;;;;;;;;;;5017951;28;20413;-65
2023/07/24 03:47:49;;;;;;;9.45;6.40;;;;;;;;;;5011093;28;20498;-65
2023/07/24 03:50:17;;;;;;;10.45;6.00;;;;;;;;;;5010667;28;20409;-65
2023/07/24 03:52:44;;;;;;;9.98;6.15;;;;;;;;;;5011012;28;20420;-65
2023/07/24 03:55:11;;;;;;;9.40;6.50;;;;;;;;;;5010728;28;20486;-65
2023/07/24 03:57:38;;;;;;;10.85;6.28;;;;;;;;;;5026466;28;20952;-65
2023/07/24 04:00:05;;;;;;;9.40;6.32;;;;;;;;;;5021012;28;20434;-65
2023/07/24 04:02:33;;;;;;;9.07;6.17;;;;;;;;;;5021122;28;20434;-64
2023/07/24 04:05:00;;;;;;;10.73;6.82;;;;;;;;;;5019220;28;20417;-65
2023/07/24 04:07:27;;;;;;;11.27;8.43;;;;;;;;;;5016551;28;20486;-65
2023/07/24 04:09:55;;;;;;;9.45;6.30;;;;;;;;;;5021634;28;20866;-65
2023/07/24 04:12:22;;;;;;;8.85;5.90;;;;;;;;;;5022459;28;20430;-65
2023/07/24 04:14:50;;;;;;;10.70;6.28;;;;;;;;;;5022849;28;20423;-65
2023/07/24 04:17:17;;;;;;;11.37;6.53;;;;;;;;;;5021298;28;20445;-65
2023/07/24 04:19:45;;;;;;;10.93;6.25;;;;;;;;;;5017164;28;20430;-65
2023/07/24 04:22:12;;;;;;;9.80;6.30;;;;;;;;;;5021745;28;20419;-65
2023/07/24 04:24:39;;;;;;;9.55;6.55;;;;;;;;;;5021255;28;20941;-64
2023/07/24 04:27:06;;;;;;;10.73;6.45;;;;;;;;;;5031274;28;20417;-65
2023/07/24 04:29:33;;;;;;;10.60;6.13;;;;;;;;;;5028948;28;20412;-65
2023/07/24 04:32:00;;;;;;;8.20;5.97;;;;;;;;;;5025961;28;20900;-65
2023/07/24 04:34:27;;;;;;;9.77;6.18;;;;;;;;;;5018095;28;20423;-65
2023/07/24 04:36:56;;;;;;;9.32;5.70;;;;;;;;;;5023687;28;20413;-65
2023/07/24 04:39:23;;;;;;;9.10;5.90;;;;;;;;;;5023290;28;20824;-65
2023/07/24 04:41:50;;;;;;;9.63;6.20;;;;;;;;;;5027109;28;20426;-65
2023/07/24 04:44:17;;;;;;;9.48;6.28;;;;;;;;;;5027742;28;20419;-64
2023/07/24 04:46:44;;;;;;;9.77;6.22;;;;;;;;;;5024470;28;20496;-65
2023/07/24 04:49:11;;;;;;;9.90;6.22;;;;;;;;;;5027865;28;20420;-65
2023/07/24 04:51:38;;;;;;;11.23;6.20;;;;;;;;;;5025646;28;21107;-65
2023/07/24 04:54:06;;;;;;;9.02;6.13;;;;;;;;;;5031760;28;20482;-64
2023/07/24 04:56:33;;;;;;;12.70;6.93;;;;;;;;;;5036201;28;20426;-63
2023/07/24 04:59:00;;;;;;;10.20;6.45;;;;;;;;;;5044707;28;20485;-64
2023/07/24 05:01:27;;;;;;;11.60;6.63;;;;;;;;;;5025556;28;20422;-63
2023/07/24 05:03:54;;;;;;;9.27;6.53;;;;;;;;;;5030078;28;20469;-66
2023/07/24 05:06:21;;;;;;;10.00;6.75;;;;;;;;;;5029456;28;20414;-64
2023/07/24 05:08:48;;;;;;;12.52;6.47;;;;;;;;;;5025298;28;20417;-65
2023/07/24 05:11:17;;;;;;;10.70;6.95;;;;;;;;;;5017973;28;20453;-64
2023/07/24 05:13:44;;;;;;;9.48;6.55;;;;;;;;;;5029022;28;20420;-66
2023/07/24 05:16:11;;;;;;;10.10;6.55;;;;;;;;;;5027733;28;20427;-67
2023/07/24 05:18:38;;;;;;;10.13;6.87;;;;;;;;;;5028863;28;20423;-63
2023/07/24 05:21:05;;;;;;;10.32;6.57;;;;;;;;;;5031793;28;20423;-67
2023/07/24 05:23:32;;;;;;;11.55;7.20;;;;;;;;;;5023700;28;20425;-63
2023/07/24 05:25:59;;;;;;;9.73;6.28;;;;;;;;;;5025927;28;20481;-62
2023/07/24 05:28:28;;;;;;;12.98;6.93;;;;;;;;;;5024848;28;20500;-64
2023/07/24 05:30:55;;;;;;;7.60;6.00;;;;;;;;;;5026646;28;20426;-62
2023/07/24 05:33:22;;;;;;;9.48;6.07;;;;;;;;;;5023828;28;20974;-61
2023/07/24 05:35:50;;;;;;;9.10;6.05;;;;;;;;;;5027836;28;20419;-62
2023/07/24 05:38:17;;;;;;;9.02;5.90;;;;;;;;;;5020040;28;20937;-64
2023/07/24 05:40:44;;;;;;;9.00;6.13;;;;;;;;;;5024743;28;20437;-62
2023/07/24 05:43:11;;;;;;;9.20;6.20;;;;;;;;;;5021644;28;20424;-63
2023/07/24 05:45:40;;;;;;;9.85;6.68;;;;;;;;;;5026342;28;20426;-63
2023/07/24 05:48:07;;;;;;;9.23;6.25;;;;;;;;;;5025527;28;20432;-63
2023/07/24 05:50:34;;;;;;;11.82;6.60;;;;;;;;;;5025597;28;20872;-60
2023/07/24 05:53:01;;;;;;;11.45;6.18;;;;;;;;;;5024078;28;20422;-65
2023/07/24 05:55:28;;;;;;;9.27;6.20;;;;;;;;;;5020325;28;20424;-63
2023/07/24 05:57:55;;;;;;;8.75;6.28;;;;;;;;;;5030437;28;20413;-63
2023/07/24 06:00:22;;;;;;;8.75;6.35;;;;;;;;;;5022352;28;20430;-65
2023/07/24 06:02:50;;;;;;;8.90;6.05;;;;;;;;;;5022938;28;20437;-64
2023/07/24 06:05:19;;;;;;;9.70;5.95;;;;;;;;;;5020159;28;20429;-67
2023/07/24 06:07:46;;;;;;;8.52;5.63;;;;;;;;;;5024875;28;20908;-64
2023/07/24 06:10:13;;;;;;;8.60;5.68;;;;;;;;;;5021653;28;20419;-64
2023/07/24 06:12:40;;;;;;;7.22;5.50;;;;;;;;;;5023914;28;20574;-65
2023/07/24 06:15:08;;;;;;;8.85;5.55;;;;;;;;;;5019596;28;20913;-64
2023/07/24 06:17:35;;;;;;;8.17;5.90;;;;;;;;;;5024764;28;20468;-63
2023/07/24 06:20:03;;;;;;;10.68;6.30;;;;;;;;;;5024061;28;20829;-64
2023/07/24 06:22:30;;;;;;;8.60;6.27;;;;;;;;;;5022692;28;20485;-65
2023/07/24 06:24:58;;;;;;;10.55;5.80;;;;;;;;;;5019553;28;20636;-64
2023/07/24 06:27:25;;;;;;;8.80;6.10;;;;;;;;;;5029056;28;20427;-64
2023/07/24 06:29:52;;;;;;;8.60;5.85;;;;;;;;;;5020464;28;21026;-65
2023/07/24 06:32:19;;;;;;;8.05;6.10;;;;;;;;;;5022448;28;20423;-64
2023/07/24 06:34:45;;;;;;;9.87;5.87;;;;;;;;;;5018699;28;20552;-64
2023/07/24 06:37:14;;;;;;;9.82;6.30;;;;;;;;;;5024619;28;20427;-66
2023/07/24 06:39:41;;;;;;;9.13;6.77;;;;;;;;;;5019648;28;20531;-65
2023/07/24 06:42:08;;;;;;;9.90;6.27;;;;;;;;;;5017617;28;20457;-65
2023/07/24 06:44:35;;;;;;;9.23;6.68;;;;;;;;;;5023553;28;20430;-64
2023/07/24 06:47:03;;;;;;;7.88;6.03;;;;;;;;;;5024504;28;20426;-63
2023/07/24 06:49:30;;;;;;;10.23;6.60;;;;;;;;;;5022694;28;20809;-64
2023/07/24 06:51:57;;;;;;;11.07;6.68;;;;;;;;;;5024340;28;20427;-64
2023/07/24 06:54:25;;;;;;;9.48;6.18;;;;;;;;;;5017861;28;20415;-63
2023/07/24 06:56:52;;;;;;;7.97;5.82;;;;;;;;;;5027215;28;20423;-64
2023/07/24 06:59:19;;;;;;;8.48;6.03;;;;;;;;;;5021401;28;20995;-64
2023/07/24 07:01:46;;;;;;;8.00;5.93;;;;;;;;;;5027463;28;20419;-64
2023/07/24 07:04:13;;;;;;;7.97;5.93;;;;;;;;;;5023295;28;20420;-69
2023/07/24 07:06:40;;;;;;;9.65;5.63;;;;;;;;;;5031163;28;20835;-67
2023/07/24 07:09:07;;;;;;;7.95;5.90;;;;;;;;;;5023844;28;20423;-68
2023/07/24 07:11:35;;;;;;;8.18;6.22;;;;;;;;;;5026938;28;20443;-69
2023/07/24 07:14:02;;;;;;;8.40;5.75;;;;;;;;;;5021430;28;20425;-71
2023/07/24 07:16:29;;;;;;;6.90;5.32;;;;;;;;;;5021046;28;20424;-68
2023/07/24 07:18:56;;;;;;;8.20;5.68;;;;;;;;;;5013846;28;20421;-72
2023/07/24 07:21:23;;;;;;;8.00;5.10;;;;;;;;;;5019868;28;20910;-71
2023/07/24 07:23:50;;;;;;;7.38;5.07;;;;;;;;;;5018093;28;20430;-73
2023/07/24 07:26:17;;;;;;;8.45;5.40;;;;;;;;;;5021183;28;20431;-66
2023/07/24 07:28:46;;;;;;;8.10;5.50;;;;;;;;;;5036046;28;20474;-67
2023/07/24 07:31:13;;;;;;;8.32;5.35;;;;;;;;;;5026985;28;20931;-66
2023/07/24 07:33:40;;;;;;;7.23;5.20;;;;;;;;;;5027093;28;20432;-67
2023/07/24 07:36:07;;;;;;;8.55;5.05;;;;;;;;;;5017917;28;20459;-66
2023/07/24 07:38:34;;;;;;;7.13;4.97;;;;;;;;;;5027402;28;20420;-66
2023/07/24 07:41:05;;;;;;;8.32;5.25;;;;;;;;;;5029931;28;20835;-66
2023/07/24 07:43:32;;;;;;;7.35;4.90;;;;;;;;;;5009547;28;20416;-66
2023/07/24 07:46:00;;;;;;;5.93;4.53;;;;;;;;;;5018836;28;20482;-67
2023/07/24 07:48:27;;;;;;;7.38;4.72;;;;;;;;;;5023935;28;20893;-65
2023/07/24 07:50:54;;;;;;;7.07;5.05;;;;;;;;;;5024561;28;20426;-65
2023/07/24 07:53:21;;;;;;;8.30;4.80;;;;;;;;;;5021009;28;20483;-65
2023/07/24 07:55:56;;;;;;;7.03;5.00;;;;;;;;;;5024035;28;20419;-65
2023/07/24 07:58:23;;;;;;;6.35;4.78;;;;;;;;;;5027095;28;20427;-65
2023/07/24 08:00:51;;;;;;;6.40;4.78;;;;;;;;;;5025684;28;20533;-68
2023/07/24 08:03:19;;;;;;;5.97;4.70;;;;;;;;;;5024662;28;20422;-68
2023/07/24 08:05:46;;;;;;;6.60;4.78;;;;;;;;;;5018893;28;20429;-63
2023/07/24 08:08:13;;;;;;;5.65;4.30;;;;;;;;;;5022337;28;20512;-63
2023/07/24 08:10:40;;;;;;;6.30;4.80;;;;;;;;;;5019540;28;20463;-63
2023/07/24 08:13:08;;;;;;;7.10;4.72;;;;;;;;;;5009434;28;20845;-63
2023/07/24 08:15:35;;;;;;;5.50;3.90;;;;;;;;;;5024851;28;20502;-63
2023/07/24 08:18:02;;;;;;;6.10;3.88;;;;;;;;;;5028891;28;20477;-63
2023/07/24 08:20:31;;;;;;;5.47;4.00;;;;;;;;;;5036401;28;20484;-64
2023/07/24 08:22:58;;;;;;;6.25;3.83;;;;;;;;;;5021522;28;20420;-65
2023/07/24 08:25:25;;;;;;;5.28;4.07;;;;;;;;;;5020086;28;20476;-64
2023/07/24 08:27:52;;;;;;;5.93;3.97;;;;;;;;;;5030407;28;20458;-62
2023/07/24 08:30:19;;;;;;;6.45;3.75;;;;;;;;;;5026597;28;20415;-63
2023/07/24 08:32:46;;;;;;;5.18;3.70;;;;;;;;;;5022887;28;20523;-64
2023/07/24 08:35:13;;;;;;;4.97;3.50;;;;;;;;;;5019418;28;20446;-64
2023/07/24 08:37:45;;;;;;;5.10;3.60;;;;;;;;;;5028105;28;20459;-65
2023/07/24 08:40:12;;;;;;;5.22;3.42;;;;;;;;;;5021940;28;20986;-63
2023/07/24 08:42:40;;;;;;;4.60;3.60;;;;;;;;;;5026556;28;20427;-63
2023/07/24 08:45:10;;;;;;;5.88;3.63;;;;;;;;;;5024308;28;20502;-63
2023/07/24 08:47:37;;;;;;;5.45;3.75;;;;;;;;;;5021104;28;20759;-64
2023/07/24 08:50:04;;;;;;;5.35;3.47;;;;;;;;;;5027518;28;20957;-62
2023/07/24 08:52:32;;;;;;;6.78;3.67;;;;;;;;;;5019135;28;20490;-64
2023/07/24 08:55:03;;;;;;;4.45;3.30;;;;;;;;;;5025864;28;20418;-62
2023/07/24 08:57:30;;;;;;;4.85;3.50;;;;;;;;;;5026847;28;20796;-64
2023/07/24 08:59:58;;;;;;;7.18;3.60;;;;;;;;;;5022988;28;20978;-64
2023/07/24 09:02:25;;;;;;;5.95;3.92;;;;;;;;;;5021369;28;20422;-63
2023/07/24 09:04:53;;;;;;;3.95;3.10;;;;;;;;;;5021397;28;20411;-63
2023/07/24 09:07:20;;;;;;;6.80;3.55;;;;;;;;;;5022303;28;20442;-63
2023/07/24 09:09:49;;;;;;;5.07;3.42;;;;;;;;;;5023058;28;20476;-64
2023/07/24 09:12:18;;;;;;;5.43;3.77;;;;;;;;;;5022426;28;20510;-64
2023/07/24 09:14:45;;;;;;;6.80;3.38;;;;;;;;;;5020531;28;20419;-65
2023/07/24 09:17:12;;;;;;;6.75;3.60;;;;;;;;;;5020813;28;20509;-65
2023/07/24 09:19:40;;;;;;;4.88;3.20;;;;;;;;;;5023064;28;20463;-64
2023/07/24 09:22:11;;;;;;;6.38;3.95;;;;;;;;;;5018058;28;20454;-63
2023/07/24 09:24:38;;;;;;;5.88;3.50;;;;;;;;;;5020067;28;20499;-64
2023/07/24 09:27:06;;;;;;;4.68;3.70;;;;;;;;;;5024676;28;20419;-63
2023/07/24 09:29:35;;;;;;;5.68;3.65;;;;;;;;;;5022056;28;20529;-63
2023/07/24 09:32:03;;;;;;;5.27;3.70;;;;;;;;;;5026303;28;20423;-65
2023/07/24 09:34:30;;;;;;;5.22;3.65;;;;;;;;;;5024044;28;20468;-65
2023/07/24 09:36:57;;;;;;;7.45;3.72;;;;;;;;;;5024607;28;20892;-64
2023/07/24 09:39:25;;;;;;;5.75;3.58;;;;;;;;;;5025089;28;20427;-64
2023/07/24 09:41:52;;;;;;;5.50;3.55;;;;;;;;;;5032218;28;20495;-67
2023/07/24 09:44:19;;;;;;;4.57;3.50;;;;;;;;;;5020212;28;20515;-67
2023/07/24 09:46:48;;;;;;;6.75;3.35;;;;;;;;;;5029570;28;20494;-63
2023/07/24 09:49:15;;;;;;;5.22;3.47;;;;;;;;;;5027668;28;20429;-65
2023/07/24 09:51:45;;;;;;;3.83;3.20;;;;;;;;;;5022393;28;20422;-70
2023/07/24 09:54:15;;;;;;;6.95;3.60;;;;;;;;;;5028604;28;20884;-64
2023/07/24 09:56:43;;;;;;;5.00;3.30;;;;;;;;;;5026020;28;20792;-63
2023/07/24 09:59:12;;;;;;;5.33;3.57;;;;;;;;;;5024548;28;20434;-63
2023/07/24 10:01:39;;;;;;;5.55;3.80;;;;;;;;;;5026241;28;20493;-64
2023/07/24 10:04:08;;;;;;;3.97;3.35;;;;;;;;;;5021888;28;20419;-64
2023/07/24 10:06:36;;;;;;;4.57;3.60;;;;;;;;;;5023082;28;20500;-64
2023/07/24 10:09:03;;;;;;;7.05;4.00;;;;;;;;;;5023147;28;20487;-68
2023/07/24 10:11:30;;;;;;;5.35;4.18;;;;;;;;;;5027821;28;20411;-65
2023/07/24 10:13:58;;;;;;;6.47;4.27;;;;;;;;;;5026828;28;20421;-65
2023/07/24 10:16:25;;;;;;;5.72;4.10;;;;;;;;;;5023303;28;20799;-62
2023/07/24 10:18:52;;;;;;;6.90;4.18;;;;;;;;;;5023299;28;20417;-62
2023/07/24 10:21:27;;;;;;;8.75;4.53;;;;;;;;;;5026956;28;20637;-62
2023/07/24 10:23:54;;;;;;;5.25;3.90;;;;;;;;;;5019901;28;20421;-62
2023/07/24 10:26:26;;;;;;;5.35;3.97;;;;;;;;;;5021551;28;20420;-62
2023/07/24 10:28:53;;;;;;;7.28;4.10;;;;;;;;;;5027729;28;20541;-63
2023/07/24 10:31:21;;;;;;;7.23;4.07;;;;;;;;;;5027880;28;21053;-66
2023/07/24 10:33:48;;;;;;;8.30;4.03;;;;;;;;;;5020680;28;20888;-66
2023/07/24 10:36:19;;;;;;;4.93;3.92;;;;;;;;;;5024886;28;20481;-66
2023/07/24 10:38:48;;;;;;;6.05;4.20;;;;;;;;;;5028185;28;20445;-68
2023/07/24 10:41:17;;;;;;;7.22;4.18;;;;;;;;;;5033218;28;20454;-70
2023/07/24 10:43:45;;;;;;;7.30;4.53;;;;;;;;;;5028942;28;20415;-67
2023/07/24 10:46:12;;;;;;;7.40;4.63;;;;;;;;;;5029303;28;20411;-66
2023/07/24 10:48:43;;;;;;;5.87;4.57;;;;;;;;;;5028969;28;20419;-65
2023/07/24 10:51:14;;;;;;;5.88;3.80;;;;;;;;;;5023222;28;20790;-65
2023/07/24 10:53:42;;;;;;;6.90;4.20;;;;;;;;;;5019440;28;20428;-65
2023/07/24 10:56:11;;;;;;;5.38;4.35;;;;;;;;;;5023631;28;20454;-65
2023/07/24 10:58:38;;;;;;;5.90;4.47;;;;;;;;;;5026972;28;20829;-64
2023/07/24 11:01:05;;;;;;;5.25;4.47;;;;;;;;;;5026053;28;20435;-65
2023/07/24 11:03:32;;;;;;;7.00;4.10;;;;;;;;;;5023907;28;20502;-65
2023/07/24 11:06:00;;;;;;;6.35;4.60;;;;;;;;;;5025490;28;20422;-67
2023/07/24 11:08:27;;;;;;;6.07;4.70;;;;;;;;;;5025179;28;20430;-69
2023/07/24 11:10:54;;;;;;;5.43;4.60;;;;;;;;;;5021630;28;20778;-67
2023/07/24 11:13:24;;;;;;;7.05;4.90;;;;;;;;;;5021557;28;20415;-67
2023/07/24 11:15:52;;;;;;;5.80;5.03;;;;;;;;;;5021839;28;20423;-68
2023/07/24 11:18:20;;;;;;;9.93;5.17;;;;;;;;;;5023733;28;20410;-67
2023/07/24 11:20:48;;;;;;;7.10;5.05;;;;;;;;;;5024681;28;20431;-67
2023/07/24 11:23:16;;;;;;;9.17;5.43;;;;;;;;;;5009650;28;20503;-69
2023/07/24 11:25:43;;;;;;;6.30;5.23;;;;;;;;;;5019771;28;20513;-67
2023/07/24 11:28:12;;;;;;;9.25;5.00;;;;;;;;;;5028677;28;20480;-68
2023/07/24 11:30:41;;;;;;;6.38;4.63;;;;;;;;;;5022147;28;20424;-68
2023/07/24 11:33:09;;;;;;;4.85;4.35;;;;;;;;;;5021786;28;20952;-67
2023/07/24 11:35:38;;;;;;;6.28;4.93;;;;;;;;;;5019583;28;20415;-66
2023/07/24 11:38:05;;;;;;;5.05;4.50;;;;;;;;;;5023952;28;20415;-67
2023/07/24 11:40:33;;;;;;;6.55;5.07;;;;;;;;;;5027545;28;20427;-64
2023/07/24 11:43:00;;;;;;;5.40;4.57;;;;;;;;;;5018531;28;20504;-64
2023/07/24 11:45:27;;;;;;;6.22;4.97;;;;;;;;;;5012686;28;20963;-64
2023/07/24 11:47:56;;;;;;;7.18;5.15;;;;;;;;;;5028576;28;20526;-66
2023/07/24 11:50:24;;;;;;;5.65;4.68;;;;;;;;;;5019250;28;20431;-64
2023/07/24 11:52:51;;;;;;;6.40;4.93;;;;;;;;;;5017861;28;20412;-66
2023/07/24 11:55:19;;;;;;;6.90;5.00;;;;;;;;;;5018164;28;20478;-67
2023/07/24 11:57:56;;;;;;;6.43;5.10;;;;;;;;;;5022701;28;20420;-67
2023/07/24 12:00:24;;;;;;;7.82;4.93;;;;;;;;;;5024468;28;20521;-67
2023/07/24 12:02:51;;;;;;;7.60;5.63;;;;;;;;;;5021393;28;20431;-66
2023/07/24 12:05:19;;;;;;;12.65;6.55;;;;;;;;;;5017703;28;20475;-65
2023/07/24 12:07:47;;;;;;;10.73;5.20;;;;;;;;;;5020288;28;20419;-66
2023/07/24 12:10:15;;;;;;;9.38;3.95;;;;;;;;;;5023335;28;20835;-67
2023/07/24 12:12:44;;;;;;;9.07;3.13;;;;;;;;;;5018428;28;20528;-67
2023/07/24 12:15:11;;;;;;;7.88;3.10;;;;;;;;;;5021065;28;20426;-66
2023/07/24 12:17:38;;;;;;;6.40;3.00;;;;;;;;;;5019043;28;20881;-67
2023/07/24 12:20:08;;;;;;;6.55;3.00;;;;;;;;;;5030440;28;20469;-67
2023/07/24 12:22:36;;;;;;;5.35;2.20;;;;;;;;;;5020435;28;20431;-68
2023/07/24 12:25:03;;;;;;;4.88;2.10;;;;;;;;;;5024102;28;20429;-67
2023/07/24 12:27:30;;;;;;;7.23;2.30;;;;;;;;;;5022609;28;20592;-65
2023/07/24 12:29:58;;;;;;;7.00;2.28;;;;;;;;;;5025107;28;20424;-63
2023/07/24 12:32:25;;;;;;;13.32;2.10;;;;;;;;;;5017293;28;20878;-64
2023/07/24 12:34:52;;;;;;;5.53;1.88;;;;;;;;;;5023673;28;20420;-64
2023/07/24 12:37:19;;;;;;;2.95;1.70;;;;;;;;;;5013957;28;20433;-65
2023/07/24 12:39:48;;;;;;;3.03;1.73;;;;;;;;;;5020618;28;20477;-64
2023/07/24 12:42:15;;;;;;;4.85;1.80;;;;;;;;;;5023337;28;21131;-64
2023/07/24 12:44:43;;;;;;;3.90;1.80;;;;;;;;;;5019995;28;20480;-64
2023/07/24 12:47:11;;;;;;;2.13;1.60;;;;;;;;;;5019901;28;20436;-64
2023/07/24 12:49:38;;;;;;;4.00;1.90;;;;;;;;;;5031348;28;20423;-66
2023/07/24 12:52:05;;;;;;;2.60;1.67;;;;;;;;;;5022916;28;20497;-64
2023/07/24 12:54:32;;;;;;;3.20;1.40;;;;;;;;;;5029279;28;20918;-65
2023/07/24 12:57:01;;;;;;;2.73;1.40;;;;;;;;;;5020844;28;21022;-65
2023/07/24 12:59:28;;;;;;;2.33;1.30;;;;;;;;;;5022174;28;20839;-64
2023/07/24 13:01:55;;;;;;;2.20;1.52;;;;;;;;;;5027052;28;20929;-66
2023/07/24 13:04:22;;;;;;;3.30;1.52;;;;;;;;;;5022387;28;20420;-68
2023/07/24 13:06:49;;;;;;;2.80;1.30;;;;;;;;;;5021408;28;20825;-65
2023/07/24 13:09:16;;;;;;;2.78;1.58;;;;;;;;;;5023635;28;20477;-67
2023/07/24 13:11:43;;;;;;;3.38;1.45;;;;;;;;;;5022330;28;20800;-68
2023/07/24 13:14:11;;;;;;;3.53;1.30;;;;;;;;;;5024165;28;20428;-66
2023/07/24 13:16:38;;;;;;;2.75;1.15;;;;;;;;;;5019981;28;20420;-65
2023/07/24 13:19:05;;;;;;;2.65;1.50;;;;;;;;;;5034357;28;20422;-72
2023/07/24 13:21:32;;;;;;;2.22;1.30;;;;;;;;;;5024700;28;20778;-68
2023/07/24 13:24:00;;;;;;;2.30;1.40;;;;;;;;;;5025629;28;20428;-67
2023/07/24 13:26:27;;;;;;;2.50;1.50;;;;;;;;;;5029845;28;20936;-69
2023/07/24 13:28:55;;;;;;;2.35;1.42;;;;;;;;;;5041572;28;20421;-68
2023/07/24 13:31:23;;;;;;;2.22;1.65;;;;;;;;;;5022792;28;20506;-66
2023/07/24 13:33:50;;;;;;;1.70;1.50;;;;;;;;;;5020875;28;20449;-66
2023/07/24 13:36:17;;;;;;;1.90;1.45;;;;;;;;;;5021238;28;20483;-66
2023/07/24 13:38:44;;;;;;;1.70;1.48;;;;;;;;;;5029141;28;20427;-69
2023/07/24 13:41:11;;;;;;;1.93;1.70;;;;;;;;;;5022785;28;20424;-70
2023/07/24 13:43:38;;;;;;;5.22;2.00;;;;;;;;;;5019953;28;20420;-65
2023/07/24 13:46:07;;;;;;;2.92;1.70;;;;;;;;;;5024176;28;20415;-66
2023/07/24 13:48:35;;;;;;;6.68;2.13;;;;;;;;;;5032624;28;20427;-66
2023/07/24 13:51:02;;;;;;;7.43;1.95;;;;;;;;;;5022932;28;20435;-68
2023/07/24 13:53:29;;;;;;;2.70;2.05;;;;;;;;;;5023965;28;20424;-67
2023/07/24 13:55:56;;;;;;;2.53;2.03;;;;;;;;;;5025232;28;20434;-68
2023/07/24 13:58:23;;;;;;;2.70;1.90;;;;;;;;;;5024650;28;20411;-66
2023/07/24 14:00:50;;;;;;;3.00;2.38;;;;;;;;;;5024733;28;20946;-67
2023/07/24 14:03:16;;;;;;;3.35;2.20;;;;;;;;;;5024783;28;20434;-67
2023/07/24 14:05:45;;;;;;;3.78;2.22;;;;;;;;;;5023727;28;20427;-68
2023/07/24 14:08:12;;;;;;;4.00;2.72;;;;;;;;;;5026670;28;20426;-69
2023/07/24 14:10:39;;;;;;;5.25;2.60;;;;;;;;;;5020243;28;21000;-68
2023/07/24 14:13:06;;;;;;;3.88;2.50;;;;;;;;;;5019940;28;20417;-69
2023/07/24 14:15:33;;;;;;;4.22;2.33;;;;;;;;;;5021811;28;20411;-69
2023/07/24 14:18:00;;;;;;;3.08;2.25;;;;;;;;;;5018835;28;20425;-68
2023/07/24 14:20:27;;;;;;;3.10;2.30;;;;;;;;;;5023861;28;20410;-68
2023/07/24 14:22:55;;;;;;;3.90;2.40;;;;;;;;;;5025178;28;20457;-67
2023/07/24 14:25:22;;;;;;;3.25;2.55;;;;;;;;;;5020185;28;20412;-67
2023/07/24 14:27:49;;;;;;;3.25;2.40;;;;;;;;;;5024836;28;20426;-67
2023/07/24 14:30:17;;;;;;;3.22;2.90;;;;;;;;;;5025816;28;20415;-67
2023/07/24 14:32:44;;;;;;;3.22;2.83;;;;;;;;;;5025028;28;20413;-67
2023/07/24 14:35:11;;;;;;;4.68;3.00;;;;;;;;;;5024143;28;20491;-67
2023/07/24 14:37:38;;;;;;;3.78;2.90;;;;;;;;;;5027374;28;20426;-66
2023/07/24 14:40:07;;;;;;;3.88;3.00;;;;;;;;;;5025821;28;20473;-66
2023/07/24 14:42:34;;;;;;;4.25;3.20;;;;;;;;;;5022116;28;20424;-67